Time;durP1;ratioP1;P1;durP2;ratioP2;P2;SDS_P1;SDS_P2;PMS_P1;PMS_P2;Temp;Humidity;BMP_temperature;BMP_pressure;BME280_temperature;BME280_humidity;BME280_pressure;Samples;Min_cycle;Max_cycle;Signal;HPM_P1;HPM_P2
2022/09/23 00:01:37;;;;;;;5.15;4.70;;;4.30;99.90;;;;;;6128916;23;20029;-84
2022/09/23 00:04:14;;;;;;;5.18;4.78;;;3.90;99.90;;;;;;6104729;23;20036;-84
2022/09/23 00:07:08;;;;;;;12.88;5.28;;;3.90;99.90;;;;;;6129516;23;20018;-84
2022/09/23 00:09:50;;;;;;;6.70;5.40;;;3.80;99.90;;;;;;6068028;23;20036;-84
2022/09/23 00:12:29;;;;;;;5.30;4.80;;;3.90;99.90;;;;;;6104184;23;20025;-84
2022/09/23 00:14:57;;;;;;;7.43;4.85;;;4.00;99.90;;;;;;6105127;23;20020;-84
2022/09/23 00:17:24;;;;;;;5.07;4.68;;;4.00;99.90;;;;;;6159245;23;20026;-84
2022/09/23 00:19:53;;;;;;;5.32;4.82;;;4.00;99.90;;;;;;6167388;23;20337;-84
2022/09/23 00:22:20;;;;;;;5.68;5.03;;;3.90;99.90;;;;;;6129844;23;20022;-83
2022/09/23 00:24:48;;;;;;;5.43;4.93;;;3.90;99.90;;;;;;6163458;23;20017;-84
2022/09/23 00:27:15;;;;;;;5.95;4.82;;;4.00;99.90;;;;;;6106520;23;20020;-84
2022/09/23 00:29:44;;;;;;;6.72;4.80;;;4.00;99.90;;;;;;6082752;23;20340;-84
2022/09/23 00:32:12;;;;;;;4.30;3.83;;;3.90;99.90;;;;;;6130543;23;20022;-84
2022/09/23 00:34:43;;;;;;;5.75;4.60;;;3.70;99.90;;;;;;6155859;23;20018;-84
2022/09/23 00:37:34;;;;;;;5.00;4.50;;;3.60;99.90;;;;;;6135026;23;20037;-84
2022/09/23 00:40:24;;;;;;;5.40;4.90;;;3.60;99.90;;;;;;6091391;23;20074;-84
2022/09/23 00:43:14;;;;;;;6.85;6.15;;;3.70;99.90;;;;;;6131073;23;20017;-84
2022/09/23 00:46:00;;;;;;;6.53;5.78;;;3.70;99.90;;;;;;6105159;23;20029;-84
2022/09/23 00:48:56;;;;;;;5.55;5.03;;;4.00;99.90;;;;;;6108305;23;20048;-84
2022/09/23 00:51:53;;;;;;;4.75;4.30;;;3.80;99.90;;;;;;6106998;23;20070;-84
2022/09/23 00:55:12;;;;;;;5.10;4.60;;;3.60;99.90;;;;;;6143955;23;20028;-84
2022/09/23 00:57:58;;;;;;;4.57;4.10;;;3.50;99.90;;;;;;6111583;23;20673;-81
2022/09/23 01:00:26;;;;;;;5.85;5.25;;;3.60;99.90;;;;;;6164352;23;20057;-81
2022/09/23 01:02:53;;;;;;;8.73;5.03;;;3.60;99.90;;;;;;6166596;23;20017;-83
2022/09/23 01:05:21;;;;;;;6.72;6.03;;;3.60;99.90;;;;;;6135244;23;20048;-83
2022/09/23 01:07:49;;;;;;;4.63;4.22;;;3.50;99.90;;;;;;6106368;23;20017;-83
2022/09/23 01:10:17;;;;;;;5.90;5.22;;;3.50;99.90;;;;;;6154763;23;20025;-83
2022/09/23 01:13:22;;;;;;;5.28;4.78;;;3.50;99.90;;;;;;6153632;23;20029;-83
2022/09/23 01:16:05;;;;;;;10.65;6.25;;;3.60;99.90;;;;;;6106592;23;20021;-83
2022/09/23 01:19:09;;;;;;;7.40;6.32;;;3.70;99.90;;;;;;6154307;23;20025;-83
2022/09/23 01:22:08;;;;;;;9.30;6.65;;;3.70;99.90;;;;;;6132953;23;20029;-83
2022/09/23 01:25:04;;;;;;;7.93;7.15;;;3.70;99.90;;;;;;6137580;23;20026;-83
2022/09/23 01:27:58;;;;;;;8.13;6.07;;;3.80;99.90;;;;;;6105849;23;20032;-83
2022/09/23 01:30:42;;;;;;;7.43;6.43;;;3.80;99.90;;;;;;6153680;23;20022;-83
2022/09/23 01:33:21;;;;;;;11.10;9.48;;;3.90;99.90;;;;;;6105629;23;20017;-83
2022/09/23 01:40:10;;;;;;;26.15;16.63;;;3.90;99.90;;;;;;6130289;23;20017;-84
2022/09/23 01:43:00;;;;;;;19.27;11.85;;;3.90;99.90;;;;;;6161995;23;20021;-83
2022/09/23 01:45:43;;;;;;;12.82;9.13;;;3.90;99.90;;;;;;6081919;23;20021;-84
2022/09/23 01:48:43;;;;;;;9.80;6.93;;;3.90;99.90;;;;;;6105567;23;20020;-84
2022/09/23 01:51:25;;;;;;;10.05;8.88;;;3.90;99.90;;;;;;6101591;23;20021;-84
2022/09/23 01:54:16;;;;;;;10.23;7.78;;;3.80;99.90;;;;;;6132134;23;20341;-83
2022/09/23 01:56:52;;;;;;;9.88;8.77;;;3.70;99.90;;;;;;6105047;23;20028;-84
2022/09/23 01:59:31;;;;;;;9.65;6.55;;;3.70;99.90;;;;;;6154007;23;20026;-84
2022/09/23 02:02:02;;;;;;;8.43;7.25;;;3.70;99.90;;;;;;6153720;23;20458;-84
2022/09/23 02:04:39;;;;;;;7.43;6.75;;;3.80;99.90;;;;;;6103149;23;20037;-84
2022/09/23 02:07:15;;;;;;;11.27;7.85;;;3.60;99.90;;;;;;6105668;23;20757;-84
2022/09/23 02:10:10;;;;;;;9.60;7.72;;;3.60;99.90;;;;;;6131006;23;20029;-84
2022/09/23 02:12:44;;;;;;;7.13;6.03;;;3.50;99.90;;;;;;6128999;23;20358;-84
2022/09/23 02:15:22;;;;;;;8.05;7.22;;;3.40;99.90;;;;;;6154671;23;20029;-84
2022/09/23 02:18:03;;;;;;;11.77;7.28;;;3.40;99.90;;;;;;6156440;23;20026;-84
2022/09/23 02:20:40;;;;;;;12.43;8.10;;;3.40;99.90;;;;;;6115072;23;20026;-84
2022/09/23 02:23:34;;;;;;;8.63;6.45;;;3.50;99.90;;;;;;6131102;23;20028;-84
2022/09/23 02:26:12;;;;;;;7.93;6.95;;;3.50;99.90;;;;;;6116341;23;20033;-83
2022/09/23 02:28:57;;;;;;;7.15;5.80;;;3.40;99.90;;;;;;6127430;23;20078;-84
2022/09/23 02:31:44;;;;;;;8.98;7.10;;;3.20;99.90;;;;;;6130243;23;20020;-84
2022/09/23 02:34:20;;;;;;;9.63;8.30;;;3.20;99.90;;;;;;6113526;23;20029;-84
2022/09/23 02:37:13;;;;;;;11.65;7.50;;;3.30;99.90;;;;;;6133028;23;20078;-83
2022/09/23 02:40:12;;;;;;;14.25;7.57;;;3.20;99.90;;;;;;6106045;23;20021;-84
2022/09/23 02:43:10;;;;;;;9.73;8.40;;;3.30;99.90;;;;;;6161369;23;20472;-84
2022/09/23 02:45:40;;;;;;;11.52;8.05;;;3.30;99.90;;;;;;6097448;23;20025;-83
2022/09/23 02:48:26;;;;;;;12.82;11.10;;;3.30;99.90;;;;;;6139078;23;20456;-83
2022/09/23 02:51:03;;;;;;;9.35;6.80;;;3.30;99.90;;;;;;6128925;23;20018;-83
2022/09/23 02:53:49;;;;;;;17.00;7.78;;;3.40;99.90;;;;;;6128850;23;20052;-83
2022/09/23 02:56:20;;;;;;;;;;;3.30;99.90;;;;;;6104914;23;20032;-83
2022/09/23 02:59:04;;;;;;;8.43;5.63;;;2.90;99.90;;;;;;6106441;23;19927;-83
2022/09/23 03:02:02;;;;;;;10.75;6.45;;;2.80;99.90;;;;;;6108236;23;20029;-83
2022/09/23 03:05:17;;;;;;;9.77;7.15;;;2.70;99.90;;;;;;6140165;23;20449;-83
2022/09/23 03:08:26;;;;;;;8.52;7.63;;;2.70;99.90;;;;;;6104368;23;20017;-79
2022/09/23 03:12:27;;;;;;;;;;;;;;;;;;;;;
2022/09/23 03:46:11;;;;;;;6.50;5.85;;;2.70;99.90;;;;;;6093426;23;20053;-84
2022/09/23 03:54:34;;;;;;;10.68;8.10;;;2.30;99.90;;;;;;6000380;23;20031;-84
2022/09/23 03:57:42;;;;;;;11.73;8.35;;;2.50;99.90;;;;;;5909618;23;20016;-84
2022/09/23 04:00:38;;;;;;;10.82;8.02;;;2.60;99.90;;;;;;5962637;23;20019;-84
2022/09/23 04:03:26;;;;;;;11.32;8.63;;;2.80;99.90;;;;;;5991286;23;20460;-84
2022/09/23 04:06:19;;;;;;;10.35;8.32;;;2.70;99.90;;;;;;6037616;23;20022;-84
2022/09/23 04:08:57;;;;;;;12.68;8.68;;;2.80;99.90;;;;;;6143424;23;20029;-84
2022/09/23 04:11:31;;;;;;;10.70;7.72;;;2.80;99.90;;;;;;6152844;23;20018;-84
2022/09/23 04:14:00;;;;;;;8.50;6.55;;;2.80;99.90;;;;;;6153182;23;20025;-84
2022/09/23 04:16:30;;;;;;;11.65;8.27;;;2.80;99.90;;;;;;6098207;23;20027;-84
2022/09/23 04:19:00;;;;;;;9.02;8.02;;;2.80;99.90;;;;;;6107255;23;20032;-84
2022/09/23 04:21:29;;;;;;;10.55;7.95;;;2.80;99.90;;;;;;6105548;23;20649;-84
2022/09/23 04:23:57;;;;;;;12.95;9.32;;;2.80;99.90;;;;;;6155918;23;20160;-84
2022/09/23 04:26:25;;;;;;;8.27;7.32;;;2.80;99.90;;;;;;6154685;23;20022;-84
2022/09/23 04:28:53;;;;;;;7.30;6.38;;;2.70;99.90;;;;;;6179857;23;20352;-84
2022/09/23 04:31:22;;;;;;;11.00;9.95;;;2.60;99.90;;;;;;6140771;23;20021;-84
2022/09/23 04:33:52;;;;;;;10.57;8.75;;;2.50;99.90;;;;;;6184911;23;20021;-84
2022/09/23 04:36:20;;;;;;;10.82;8.30;;;2.50;99.90;;;;;;6184127;23;20017;-84
2022/09/23 04:38:49;;;;;;;10.93;9.77;;;2.60;99.90;;;;;;6220301;23;20024;-84
2022/09/23 04:41:17;;;;;;;14.40;9.38;;;2.70;99.90;;;;;;6184055;23;20077;-84
2022/09/23 04:43:45;;;;;;;9.45;7.57;;;2.60;99.90;;;;;;6185261;23;20017;-84
2022/09/23 04:46:14;;;;;;;9.05;8.13;;;2.30;99.90;;;;;;6209553;23;20437;-84
2022/09/23 04:48:42;;;;;;;10.77;6.72;;;2.20;99.90;;;;;;6193587;23;20021;-84
2022/09/23 04:51:14;;;;;;;12.55;7.88;;;2.20;99.90;;;;;;6210113;23;20013;-84
2022/09/23 04:53:46;;;;;;;12.07;8.65;;;2.20;99.90;;;;;;6211764;23;20029;-85
2022/09/23 04:56:19;;;;;;;9.38;8.48;;;2.30;99.90;;;;;;6165118;23;20013;-78
2022/09/23 04:58:47;;;;;;;12.15;9.40;;;2.40;99.90;;;;;;6218003;23;20460;-78
2022/09/23 05:01:24;;;;;;;12.30;9.05;;;2.40;99.90;;;;;;6207236;23;20017;-78
2022/09/23 05:03:57;;;;;;;9.43;8.50;;;2.40;99.90;;;;;;6192302;23;20016;-78
2022/09/23 05:06:24;;;;;;;13.13;9.05;;;2.50;99.90;;;;;;6207026;23;20029;-79
2022/09/23 05:08:54;;;;;;;10.45;9.02;;;2.50;99.90;;;;;;6213732;23;20028;-79
2022/09/23 05:11:23;;;;;;;16.45;11.57;;;2.50;99.90;;;;;;6193251;23;20017;-79
2022/09/23 05:13:53;;;;;;;10.15;8.13;;;2.50;99.90;;;;;;6207278;23;20025;-79
2022/09/23 05:16:22;;;;;;;16.15;10.25;;;2.50;99.90;;;;;;6181844;23;20017;-79
2022/09/23 05:18:50;;;;;;;16.33;9.45;;;2.50;99.90;;;;;;6183027;23;20013;-79
2022/09/23 05:21:20;;;;;;;15.85;9.95;;;2.70;99.90;;;;;;6206524;23;20021;-79
2022/09/23 05:23:53;;;;;;;13.45;10.35;;;2.70;99.90;;;;;;6217819;23;20017;-79
2022/09/23 05:26:24;;;;;;;16.40;10.02;;;2.70;99.90;;;;;;6206188;23;20025;-79
2022/09/23 05:28:52;;;;;;;13.90;10.52;;;2.70;99.90;;;;;;6190101;23;20021;-79
2022/09/23 05:31:22;;;;;;;10.60;9.13;;;2.80;99.90;;;;;;6182326;23;20025;-78
2022/09/23 05:33:53;;;;;;;12.65;9.05;;;2.80;99.90;;;;;;6206728;23;20025;-79
2022/09/23 05:36:21;;;;;;;10.10;8.30;;;2.90;99.90;;;;;;6215285;23;20032;-79
2022/09/23 05:38:50;;;;;;;12.23;9.25;;;2.90;99.90;;;;;;6218251;23;20020;-79
2022/09/23 05:41:21;;;;;;;22.80;8.65;;;2.90;99.90;;;;;;6180236;23;20025;-78
2022/09/23 05:43:51;;;;;;;11.05;8.45;;;2.90;99.90;;;;;;6182278;23;20021;-79
2022/09/23 05:46:22;;;;;;;8.75;7.97;;;3.10;99.90;;;;;;6182061;23;20029;-79
2022/09/23 05:48:50;;;;;;;14.35;8.32;;;3.20;99.90;;;;;;6132913;23;20025;-79
2022/09/23 05:51:20;;;;;;;13.02;8.68;;;3.30;99.90;;;;;;6181493;23;20024;-79
2022/09/23 05:53:51;;;;;;;10.18;8.57;;;3.40;99.90;;;;;;6181363;23;20021;-79
2022/09/23 05:56:21;;;;;;;11.57;9.05;;;3.60;99.90;;;;;;6214972;23;20024;-79
2022/09/23 05:58:50;;;;;;;12.02;9.23;;;3.70;99.90;;;;;;6194319;23;20024;-79
2022/09/23 06:01:20;;;;;;;11.93;10.55;;;3.80;99.90;;;;;;6182198;23;20017;-79
2022/09/23 06:03:48;;;;;;;15.68;13.95;;;4.00;99.90;;;;;;6157865;23;20009;-79
2022/09/23 06:06:19;;;;;;;10.25;9.32;;;4.10;99.90;;;;;;6175854;23;20024;-79
2022/09/23 06:08:52;;;;;;;11.85;10.40;;;4.30;99.90;;;;;;6154852;23;20029;-79
2022/09/23 06:11:20;;;;;;;13.52;10.73;;;4.40;99.90;;;;;;6179665;23;20448;-79
2022/09/23 06:13:49;;;;;;;9.80;7.18;;;4.50;99.90;;;;;;6201610;23;20025;-79
2022/09/23 06:16:16;;;;;;;9.25;7.55;;;4.70;99.90;;;;;;6185448;23;20017;-80
2022/09/23 06:18:44;;;;;;;17.33;10.13;;;4.90;99.90;;;;;;6163833;23;20013;-80
2022/09/23 06:21:15;;;;;;;10.70;7.78;;;5.20;99.90;;;;;;6128601;23;20025;-80
2022/09/23 06:23:43;;;;;;;17.13;13.55;;;5.70;99.90;;;;;;6178963;23;20017;-80
2022/09/23 06:26:14;;;;;;;19.48;14.02;;;6.10;99.90;;;;;;6176926;23;20032;-80
2022/09/23 06:28:42;;;;;;;8.77;6.60;;;6.60;99.90;;;;;;6187163;23;20031;-80
2022/09/23 06:31:12;;;;;;;8.15;7.43;;;7.10;99.90;;;;;;6178381;23;20024;-79
2022/09/23 06:33:44;;;;;;;5.63;4.60;;;7.40;99.90;;;;;;6206396;23;20044;-80
2022/09/23 06:36:13;;;;;;;9.88;8.80;;;7.70;99.90;;;;;;6202832;23;20025;-80
2022/09/23 06:39:01;;;;;;;8.73;4.72;;;7.80;99.90;;;;;;6213997;23;20017;-80
2022/09/23 06:41:29;;;;;;;11.10;7.68;;;8.00;99.90;;;;;;6206314;23;20081;-80
2022/09/23 06:43:57;;;;;;;25.20;15.77;;;8.00;99.90;;;;;;6178675;23;20021;-80
2022/09/23 06:46:25;;;;;;;24.92;16.00;;;8.00;99.90;;;;;;6178608;23;20021;-80
2022/09/23 06:48:52;;;;;;;5.72;5.22;;;7.90;99.90;;;;;;6153643;23;20032;-80
2022/09/23 06:51:20;;;;;;;8.23;4.80;;;8.00;99.90;;;;;;6189675;23;20020;-80
2022/09/23 06:53:48;;;;;;;5.80;5.18;;;8.00;99.90;;;;;;6182096;23;20029;-80
2022/09/23 06:56:18;;;;;;;9.00;6.55;;;8.40;99.90;;;;;;6176544;23;20447;-80
2022/09/23 06:58:46;;;;;;;5.15;3.95;;;8.50;99.90;;;;;;6202518;23;20024;-80
2022/09/23 07:01:15;;;;;;;4.65;4.25;;;8.40;99.90;;;;;;6153373;23;20025;-81
2022/09/23 07:03:44;;;;;;;11.60;9.88;;;8.20;99.90;;;;;;6189760;23;20558;-80
2022/09/23 07:06:12;;;;;;;12.95;7.07;;;8.10;99.90;;;;;;6178678;23;20025;-81
2022/09/23 07:08:46;;;;;;;5.68;5.18;;;8.10;99.90;;;;;;6188029;23;20332;-81
2022/09/23 07:11:15;;;;;;;11.82;8.82;;;8.30;99.90;;;;;;6189027;23;20017;-81
2022/09/23 07:13:42;;;;;;;7.25;6.53;;;8.40;99.90;;;;;;6206808;23;20032;-81
2022/09/23 07:16:10;;;;;;;6.05;4.93;;;8.50;99.90;;;;;;6190356;23;20017;-82
2022/09/23 07:18:39;;;;;;;6.75;5.65;;;8.60;99.90;;;;;;6191793;23;20020;-83
2022/09/23 07:21:12;;;;;;;11.02;5.10;;;8.70;99.90;;;;;;6178908;23;20068;-82
2022/09/23 07:23:45;;;;;;;5.97;5.38;;;8.80;99.90;;;;;;6204714;23;20352;-82
2022/09/23 07:26:13;;;;;;;5.22;4.65;;;8.80;99.90;;;;;;6129625;23;20528;-82
2022/09/23 07:28:41;;;;;;;4.82;4.30;;;9.00;99.90;;;;;;6187412;23;20021;-82
2022/09/23 07:31:12;;;;;;;6.28;4.47;;;9.10;99.90;;;;;;6181375;23;20025;-83
2022/09/23 07:33:43;;;;;;;4.63;3.97;;;9.10;99.90;;;;;;6208771;23;20021;-82
2022/09/23 07:36:14;;;;;;;7.80;3.92;;;9.10;99.90;;;;;;6132013;23;20021;-81
2022/09/23 07:38:41;;;;;;;3.47;3.17;;;9.20;99.90;;;;;;6193547;23;20017;-82
2022/09/23 07:41:17;;;;;;;10.27;4.85;;;9.30;99.90;;;;;;6184750;23;20504;-83
2022/09/23 07:43:45;;;;;;;6.38;5.38;;;9.40;99.90;;;;;;6132649;23;20432;-82
2022/09/23 07:46:16;;;;;;;4.15;3.75;;;9.40;99.90;;;;;;6179190;23;20047;-82
2022/09/23 07:48:44;;;;;;;3.47;3.23;;;9.40;99.90;;;;;;6189783;23;20017;-82
2022/09/23 07:51:17;;;;;;;4.65;4.18;;;9.50;99.90;;;;;;6180901;23;20329;-85
2022/09/23 07:53:50;;;;;;;3.90;3.25;;;9.40;99.90;;;;;;6183523;23;20028;-84
2022/09/23 07:56:59;;;;;;;4.60;4.15;;;9.40;99.90;;;;;;6175140;23;20026;-84
2022/09/23 07:59:39;;;;;;;4.47;3.78;;;9.50;99.90;;;;;;6192992;23;20017;-84
2022/09/23 08:02:21;;;;;;;5.57;5.03;;;9.70;99.90;;;;;;6194121;23;20032;-84
2022/09/23 08:04:55;;;;;;;18.98;7.55;;;9.70;99.90;;;;;;6150669;23;20525;-84
2022/09/23 08:07:58;;;;;;;5.63;4.70;;;9.80;99.90;;;;;;6130960;23;20028;-88
2022/09/23 08:11:06;;;;;;;9.38;4.63;;;9.90;99.90;;;;;;6167740;23;20025;-89
2022/09/23 08:13:33;;;;;;;7.05;4.45;;;10.00;99.90;;;;;;6155370;23;20021;-87
2022/09/23 08:16:01;;;;;;;7.55;4.43;;;10.10;99.90;;;;;;6192016;23;20017;-87
2022/09/23 08:18:29;;;;;;;5.20;3.92;;;10.00;99.90;;;;;;6182456;23;20029;-87
2022/09/23 08:20:57;;;;;;;14.52;5.03;;;10.20;99.90;;;;;;6131686;23;20024;-87
2022/09/23 08:23:24;;;;;;;4.15;3.75;;;10.10;99.90;;;;;;6181266;23;20028;-86
2022/09/23 08:25:58;;;;;;;10.32;5.78;;;10.20;99.90;;;;;;6205679;23;20020;-85
2022/09/23 08:28:26;;;;;;;9.93;8.93;;;10.20;99.90;;;;;;6155737;23;20025;-87
2022/09/23 08:30:54;;;;;;;5.32;4.82;;;10.40;99.90;;;;;;6160978;23;20020;-88
2022/09/23 08:33:23;;;;;;;4.70;3.83;;;10.40;99.90;;;;;;6185056;23;20028;-85
2022/09/23 08:35:51;;;;;;;15.20;9.15;;;10.60;99.90;;;;;;6221828;23;20363;-90
2022/09/23 08:38:19;;;;;;;6.60;5.28;;;10.50;99.90;;;;;;6210792;23;20025;-90
2022/09/23 08:40:49;;;;;;;5.43;3.72;;;10.20;99.90;;;;;;6211030;23;20036;-86
2022/09/23 08:43:22;;;;;;;5.70;4.18;;;10.30;99.90;;;;;;6196555;23;20474;-87
2022/09/23 08:45:50;;;;;;;17.35;15.63;;;10.60;99.90;;;;;;6160065;23;20021;-87
2022/09/23 08:48:28;;;;;;;20.63;18.48;;;10.80;99.90;;;;;;6136501;23;20017;-87
2022/09/23 08:51:03;;;;;;;15.30;13.13;;;10.80;99.90;;;;;;6186310;23;20021;-88
2022/09/23 08:53:35;;;;;;;6.13;5.47;;;11.00;99.90;;;;;;6189500;23;20021;-86
2022/09/23 08:56:15;;;;;;;4.78;4.40;;;11.20;99.90;;;;;;6210119;23;20731;-87
2022/09/23 08:58:57;;;;;;;4.57;4.25;;;11.30;99.90;;;;;;6210995;23;20025;-87
2022/09/23 09:01:43;;;;;;;4.57;4.00;;;11.20;99.90;;;;;;6210182;23;20039;-86
2022/09/23 09:04:23;;;;;;;3.88;3.55;;;11.20;99.90;;;;;;6195301;23;20019;-86
2022/09/23 09:06:59;;;;;;;4.75;3.97;;;11.40;99.90;;;;;;6196129;23;20427;-86
2022/09/23 09:09:53;;;;;;;3.85;3.50;;;11.20;99.90;;;;;;6185792;23;20017;-85
2022/09/23 09:12:31;;;;;;;4.07;3.70;;;11.40;99.90;;;;;;6194203;23;20339;-85
2022/09/23 09:15:09;;;;;;;5.57;5.15;;;11.60;99.90;;;;;;6171544;23;20013;-85
2022/09/23 09:17:38;;;;;;;4.90;4.47;;;11.70;99.90;;;;;;6210774;23;20021;-85
2022/09/23 09:20:31;;;;;;;4.80;4.43;;;11.80;99.90;;;;;;6219969;23;20017;-87
2022/09/23 09:23:11;;;;;;;6.32;5.82;;;12.00;99.90;;;;;;6136946;23;20027;-86
2022/09/23 09:25:57;;;;;;;4.22;3.92;;;11.90;99.90;;;;;;6180498;23;20031;-80
2022/09/23 09:28:43;;;;;;;7.28;3.63;;;11.90;99.90;;;;;;6181025;23;20024;-82
2022/09/23 09:31:36;;;;;;;4.35;3.42;;;12.00;99.90;;;;;;6193562;23;20920;-86
2022/09/23 09:34:15;;;;;;;3.80;3.38;;;12.10;99.90;;;;;;6185774;23;20036;-87
2022/09/23 09:37:50;;;;;;;8.02;7.30;;;12.10;99.90;;;;;;6167108;23;20029;-86
2022/09/23 09:40:20;;;;;;;4.72;3.80;;;12.20;99.90;;;;;;6210536;23;20016;-88
2022/09/23 09:42:49;;;;;;;4.45;3.95;;;12.40;99.90;;;;;;6210118;23;20343;-84
2022/09/23 09:45:37;;;;;;;3.50;3.20;;;12.40;99.90;;;;;;6210074;23;20443;-86
2022/09/23 09:48:21;;;;;;;12.45;6.35;;;12.50;99.90;;;;;;6120135;23;20024;-87
2022/09/23 09:50:51;;;;;;;6.75;3.20;;;12.70;99.90;;;;;;6175161;23;20013;-89
2022/09/23 09:53:27;;;;;;;8.38;6.47;;;12.80;99.90;;;;;;6185672;23;20021;-86
2022/09/23 09:56:15;;;;;;;4.88;4.13;;;12.90;99.90;;;;;;6219891;23;20031;-85
2022/09/23 09:58:47;;;;;;;57.95;53.50;;;12.90;99.90;;;;;;6219038;23;20055;-86
2022/09/23 10:01:24;;;;;;;19.52;12.57;;;13.00;99.90;;;;;;6160078;23;20024;-86
2022/09/23 10:03:56;;;;;;;3.53;3.22;;;13.20;99.90;;;;;;6136719;23;20038;-87
2022/09/23 10:06:35;;;;;;;16.00;4.30;;;13.30;99.90;;;;;;6182476;23;20715;-86
2022/09/23 10:09:14;;;;;;;4.07;3.67;;;13.40;99.90;;;;;;6215347;23;20025;-87
2022/09/23 10:12:01;;;;;;;5.30;3.72;;;13.60;99.90;;;;;;6219854;23;20020;-86
2022/09/23 10:14:30;;;;;;;6.53;4.35;;;13.30;99.90;;;;;;6159066;23;20032;-87
2022/09/23 10:17:06;;;;;;;2.97;2.78;;;13.20;99.90;;;;;;6183346;23;20039;-86
2022/09/23 10:19:37;;;;;;;4.22;3.65;;;13.50;99.90;;;;;;6185511;23;20353;-85
2022/09/23 10:22:26;;;;;;;6.07;3.17;;;13.80;99.90;;;;;;6184987;23;20036;-86
2022/09/23 10:24:56;;;;;;;23.83;4.95;;;13.90;99.90;;;;;;6184629;23;20039;-86
2022/09/23 10:27:33;;;;;;;3.80;3.50;;;13.90;99.90;;;;;;6185417;23;20021;-86
2022/09/23 10:30:25;;;;;;;4.03;3.72;;;13.90;99.90;;;;;;6160418;23;20028;-86
2022/09/23 10:32:55;;;;;;;3.60;3.28;;;13.90;99.90;;;;;;6184273;23;20440;-86
2022/09/23 10:35:25;;;;;;;3.38;3.15;;;14.00;99.90;;;;;;6185600;23;20016;-86
2022/09/23 10:37:58;;;;;;;3.92;2.90;;;14.10;99.90;;;;;;6135389;23;20325;-87
2022/09/23 10:46:40;;;;;;;5.78;3.70;;;14.40;99.90;;;;;;6211033;23;20028;-87
2022/09/23 10:49:46;;;;;;;6.47;3.47;;;14.50;99.90;;;;;;6215513;23;20028;-86
2022/09/23 10:52:36;;;;;;;3.95;3.17;;;14.50;99.90;;;;;;6169067;23;20013;-86
2022/09/23 10:55:13;;;;;;;7.00;3.22;;;14.60;99.90;;;;;;6210295;23;20016;-86
2022/09/23 10:57:43;;;;;;;5.28;3.60;;;14.60;99.90;;;;;;6159593;23;20025;-85
2022/09/23 11:00:25;;;;;;;4.50;4.10;;;14.70;99.90;;;;;;6169332;23;20019;-86
2022/09/23 11:03:16;;;;;;;3.15;2.95;;;14.80;99.90;;;;;;6136867;23;20016;-86
2022/09/23 11:06:10;;;;;;;3.92;3.30;;;14.80;99.90;;;;;;6135540;23;20028;-87
2022/09/23 11:08:55;;;;;;;3.97;2.92;;;15.10;99.90;;;;;;6159841;23;20025;-85
2022/09/23 11:12:02;;;;;;;4.68;3.00;;;15.10;99.90;;;;;;6170831;23;20466;-85
2022/09/23 11:14:49;;;;;;;3.05;2.85;;;15.00;99.90;;;;;;6159495;23;20027;-86
2022/09/23 11:17:49;;;;;;;4.93;2.35;;;15.10;99.90;;;;;;6189248;23;20028;-85
2022/09/23 11:20:55;;;;;;;5.17;3.60;;;15.00;99.90;;;;;;6220254;23;20713;-84
2022/09/23 11:23:42;;;;;;;3.42;3.13;;;15.10;99.90;;;;;;6158875;23;20033;-87
2022/09/23 11:26:44;;;;;;;2.80;2.60;;;15.30;99.90;;;;;;6208432;23;20040;-86
2022/09/23 11:29:35;;;;;;;2.78;2.58;;;15.40;99.90;;;;;;6136615;23;20028;-87
2022/09/23 11:32:29;;;;;;;3.72;3.17;;;15.50;99.90;;;;;;6183896;23;20028;-85
2022/09/23 11:35:20;;;;;;;3.20;2.90;;;15.70;99.90;;;;;;6209900;23;20017;-85
2022/09/23 11:38:36;;;;;;;3.60;3.05;;;15.80;99.90;;;;;;6187180;23;20044;-86
2022/09/23 11:41:31;;;;;;;2.63;2.38;;;15.70;99.90;;;;;;6158170;23;20028;-87
2022/09/23 11:44:12;;;;;;;2.92;2.72;;;15.80;99.90;;;;;;6160220;23;20025;-85
2022/09/23 11:47:00;;;;;;;3.13;2.92;;;15.90;99.90;;;;;;6137126;23;20029;-85
2022/09/23 11:49:38;;;;;;;3.00;2.55;;;15.90;99.90;;;;;;6183207;23;20024;-86
2022/09/23 11:52:20;;;;;;;4.40;2.55;;;16.00;99.90;;;;;;6157883;23;20017;-87
2022/09/23 11:55:16;;;;;;;9.20;2.85;;;16.10;99.90;;;;;;6160208;23;20032;-90
2022/09/23 11:57:58;;;;;;;3.63;1.80;;;16.10;99.90;;;;;;6186487;23;20028;-86
2022/09/23 12:00:33;;;;;;;1.70;1.60;;;16.10;99.90;;;;;;6158519;23;20024;-86
2022/09/23 12:03:16;;;;;;;3.90;2.33;;;16.10;99.90;;;;;;6135609;23;20028;-85
2022/09/23 12:06:00;;;;;;;2.58;1.73;;;16.20;99.90;;;;;;6211694;23;20048;-88
2022/09/23 12:09:32;;;;;;;2.25;1.98;;;16.30;99.90;;;;;;6183667;23;20456;-85
2022/09/23 12:12:58;;;;;;;2.25;1.45;;;16.50;99.90;;;;;;6200779;23;20025;-86
2022/09/23 12:15:38;;;;;;;2.03;1.92;;;16.60;99.90;;;;;;6197232;23;20016;-84
2022/09/23 12:18:44;;;;;;;3.30;1.70;;;16.70;99.90;;;;;;6212058;23;20021;-86
2022/09/23 12:21:49;;;;;;;3.60;1.60;;;16.70;99.90;;;;;;6216950;23;20063;-86
2022/09/23 12:24:36;;;;;;;2.67;2.20;;;16.70;99.90;;;;;;6185044;23;20088;-91
2022/09/23 12:27:27;;;;;;;5.97;2.05;;;16.70;99.90;;;;;;6198305;23;20483;-93
2022/09/23 12:30:16;;;;;;;5.50;2.80;;;16.60;99.90;;;;;;6167793;23;20021;-91
2022/09/23 12:32:45;;;;;;;3.17;2.88;;;16.60;99.90;;;;;;6181050;23;20017;-88
2022/09/23 12:35:34;;;;;;;2.38;2.17;;;16.50;99.90;;;;;;6161463;23;20027;-86
2022/09/23 12:38:36;;;;;;;4.28;1.95;;;16.40;99.90;;;;;;6187580;23;20028;-88
2022/09/23 12:41:22;;;;;;;2.00;1.90;;;16.50;99.90;;;;;;6185046;23;20317;-85
2022/09/23 12:43:54;;;;;;;1.85;1.70;;;16.60;99.90;;;;;;6161640;23;20027;-84
2022/09/23 12:46:24;;;;;;;2.50;1.95;;;16.50;99.90;;;;;;6212460;23;20031;-87
2022/09/23 12:48:56;;;;;;;3.55;1.65;;;16.70;99.90;;;;;;6160777;23;20035;-85
2022/09/23 12:51:28;;;;;;;16.60;3.67;;;16.80;99.90;;;;;;6222859;23;20028;-87
2022/09/23 12:54:21;;;;;;;2.70;2.42;;;16.70;99.90;;;;;;6160609;23;20024;-87
2022/09/23 12:56:51;;;;;;;2.60;1.90;;;16.80;99.90;;;;;;6160717;23;20028;-88
2022/09/23 12:59:50;;;;;;;2.45;2.25;;;16.70;99.90;;;;;;6161522;23;20024;-87
2022/09/23 13:02:35;;;;;;;7.10;2.83;;;16.70;99.90;;;;;;6170350;23;20083;-86
2022/09/23 13:08:53;;;;;;;3.90;2.58;;;16.80;99.90;;;;;;6156612;23;20029;-90
2022/09/23 13:11:40;;;;;;;;;;;;;;;;;;;;;
2022/09/23 13:15:31;;;;;;;3.47;2.25;;;16.80;99.90;;;;;;6033182;23;20082;-91
2022/09/23 13:53:05;;;;;;;4.18;3.35;;;16.80;99.90;;;;;;6163728;23;20029;-86
2022/09/23 14:01:40;;;;;;;3.13;2.60;;;16.90;99.90;;;;;;6027090;23;20042;-87
2022/09/23 14:04:43;;;;;;;17.63;3.90;;;17.00;99.90;;;;;;5961729;23;20126;-86
2022/09/23 14:08:38;;;;;;;3.40;2.85;;;17.00;99.90;;;;;;6016912;23;20340;-87
2022/09/23 14:29:44;;;;;;;;;;;;;;;;;;;;;
2022/09/23 14:33:33;;;;;;;3.47;2.40;;;17.10;99.90;;;;;;5971493;23;20031;-87
2022/09/23 14:42:00;;;;;;;;;;;;;;;;;;;;;
2022/09/23 16:12:23;;;;;;;22.20;12.77;;;15.70;99.90;;;;;;6184617;23;20033;-90
2022/09/23 16:14:50;;;;;;;3.35;3.15;;;15.50;99.90;;;;;;6200241;23;20016;-91
2022/09/23 16:17:27;;;;;;;2.60;2.38;;;15.40;99.90;;;;;;6237974;23;20028;-87
2022/09/23 16:19:54;;;;;;;16.20;5.47;;;14.80;99.90;;;;;;6224194;23;20031;-88
2022/09/23 16:22:22;;;;;;;4.03;3.70;;;13.90;99.90;;;;;;6211244;23;20024;-88
2022/09/23 16:24:49;;;;;;;4.18;2.83;;;13.40;99.90;;;;;;6236421;23;20035;-87
2022/09/23 16:27:18;;;;;;;3.10;2.55;;;12.90;99.90;;;;;;6211658;23;20052;-89
2022/09/23 16:29:45;;;;;;;3.58;3.28;;;12.60;99.90;;;;;;6215602;23;20032;-89
2022/09/23 16:32:13;;;;;;;5.50;3.05;;;12.50;99.90;;;;;;6196181;23;20024;-90
2022/09/23 16:34:45;;;;;;;10.02;3.55;;;12.50;99.90;;;;;;6186913;23;20023;-90
2022/09/23 16:37:16;;;;;;;3.15;2.88;;;12.40;99.90;;;;;;6186447;23;20491;-89
2022/09/23 16:39:44;;;;;;;2.55;2.35;;;12.40;99.90;;;;;;6221928;23;20712;-88
2022/09/23 16:42:12;;;;;;;4.22;2.20;;;12.40;99.90;;;;;;6213680;23;20032;-88
2022/09/23 16:44:40;;;;;;;4.47;2.70;;;12.10;99.90;;;;;;6211430;23;20036;-88
2022/09/23 16:47:07;;;;;;;6.13;2.40;;;11.80;99.90;;;;;;6249135;23;20009;-89
2022/09/23 16:49:35;;;;;;;4.97;2.05;;;11.70;99.90;;;;;;6215049;23;20029;-89
2022/09/23 16:52:02;;;;;;;4.80;2.65;;;11.70;99.90;;;;;;6225122;23;20023;-88
2022/09/23 16:54:30;;;;;;;2.65;2.45;;;11.60;99.90;;;;;;6190428;23;20020;-89
2022/09/23 17:12:36;;;;;;;3.00;2.63;;;10.90;99.90;;;;;;6175318;22;20020;-91
2022/09/23 17:15:16;;;;;;;2.88;2.67;;;10.80;99.90;;;;;;6217160;23;20643;-88
2022/09/23 17:18:11;;;;;;;2.55;2.28;;;10.90;99.90;;;;;;6227232;23;20035;-86
2022/09/23 17:20:56;;;;;;;3.15;2.95;;;10.90;99.90;;;;;;6249895;23;20024;-83
2022/09/23 17:23:25;;;;;;;2.85;2.55;;;10.60;99.90;;;;;;6253188;23;20015;-85
2022/09/23 17:25:53;;;;;;;7.43;3.25;;;10.50;99.90;;;;;;6244818;23;20020;-86
2022/09/23 17:28:21;;;;;;;2.92;2.72;;;10.40;99.90;;;;;;6251397;23;20016;-86
2022/09/23 17:30:59;;;;;;;3.33;2.83;;;10.30;99.90;;;;;;6253488;23;20026;-88
2022/09/23 17:33:30;;;;;;;4.22;3.45;;;10.30;99.90;;;;;;6220073;23;20035;-87
2022/09/23 17:36:01;;;;;;;3.25;2.42;;;10.30;99.90;;;;;;6215795;23;20023;-87